Time;durP1;ratioP1;P1;durP2;ratioP2;P2;SDS_P1;SDS_P2;PMS_P1;PMS_P2;Temp;Humidity;BMP_temperature;BMP_pressure;BME280_temperature;BME280_humidity;BME280_pressure;Samples;Min_cycle;Max_cycle;Signal;HPM_P1;HPM_P2
2023/03/09 00:05:55;;;;;;;0.30;0.30;;;;;;;18.33;32.61;102132.03;21077105;28;20097;-67
2023/03/09 00:15:57;;;;;;;0.52;0.52;;;;;;;18.33;32.55;102154.22;21070430;28;20109;-66
2023/03/09 00:26:06;;;;;;;0.70;0.40;;;;;;;18.20;32.36;102128.38;21076645;28;20040;-66
2023/03/09 00:36:12;;;;;;;0.30;0.30;;;;;;;18.28;32.38;102147.44;21078773;28;20047;-65
2023/03/09 00:46:14;;;;;;;0.57;0.38;;;;;;;18.27;32.61;102156.81;21092864;28;20040;-68
2023/03/09 00:56:19;;;;;;;0.98;0.40;;;;;;;18.25;32.74;102170.06;21091588;28;20059;-67
2023/03/09 01:06:20;;;;;;;0.90;0.35;;;;;;;18.23;32.23;102171.38;21090564;28;20483;-67
2023/03/09 01:16:21;;;;;;;0.55;0.43;;;;;;;18.24;32.59;102201.63;21090102;28;20074;-66
2023/03/09 01:26:23;;;;;;;0.90;0.50;;;;;;;18.21;32.54;102202.09;21089092;28;20044;-66
2023/03/09 01:36:24;;;;;;;0.50;0.40;;;;;;;18.24;32.63;102206.34;21088998;28;20055;-67
2023/03/09 01:46:56;;;;;;;0.47;0.47;;;;;;;18.16;32.50;102220.50;21088273;28;20055;-67
2023/03/09 01:57:06;;;;;;;0.35;0.35;;;;;;;18.21;32.40;102224.25;21085677;28;20472;-67
2023/03/09 02:07:07;;;;;;;;;;;;;;;18.21;32.50;102238.09;21086665;28;20512;-68
2023/03/09 02:17:11;;;;;;;1.73;0.60;;;;;;;18.25;32.65;102258.72;21085532;28;19912;-65
2023/03/09 02:27:20;;;;;;;0.40;0.40;;;;;;;18.22;32.40;102264.72;21084701;28;20395;-67
2023/03/09 02:37:32;;;;;;;0.60;0.60;;;;;;;18.19;32.64;102269.88;21084454;28;20045;-67
2023/03/09 02:47:36;;;;;;;0.68;0.60;;;;;;;18.20;32.51;102258.59;21082485;28;20099;-68
2023/03/09 02:57:40;;;;;;;0.63;0.40;;;;;;;18.17;32.68;102256.25;21081211;28;20101;-65
2023/03/09 03:07:44;;;;;;;0.40;0.40;;;;;;;17.97;32.23;102239.88;21080918;28;20044;-66
2023/03/09 03:17:46;;;;;;;0.57;0.57;;;;;;;18.10;32.54;102261.06;21080391;28;20036;-67
2023/03/09 03:27:49;;;;;;;0.57;0.45;;;;;;;18.12;32.48;102263.56;21079827;28;20044;-67
2023/03/09 03:37:51;;;;;;;0.60;0.45;;;;;;;18.11;32.45;102275.75;21079079;28;20036;-67
2023/03/09 03:47:52;;;;;;;0.75;0.50;;;;;;;18.10;32.64;102283.22;21060419;28;20041;-66
2023/03/09 03:57:54;;;;;;;0.40;0.40;;;;;;;18.11;32.23;102292.38;20997588;28;20051;-66
2023/03/09 04:07:55;;;;;;;0.40;0.40;;;;;;;17.99;32.32;102283.94;21019376;28;20093;-67
2023/03/09 04:17:56;;;;;;;0.32;0.30;;;;;;;18.04;32.29;102320.13;21075773;28;20395;-67
2023/03/09 04:27:58;;;;;;;0.57;0.52;;;;;;;18.07;32.46;102316.06;20994453;28;20102;-67
2023/03/09 04:37:59;;;;;;;0.52;0.45;;;;;;;17.97;32.20;102306.34;20992603;28;20464;-66
2023/03/09 04:48:00;;;;;;;0.80;0.60;;;;;;;18.03;32.59;102312.88;20991703;28;20385;-66
2023/03/09 04:58:02;;;;;;;0.68;0.50;;;;;;;18.03;32.21;102315.66;21018764;28;20471;-67
2023/03/09 05:08:04;;;;;;;0.65;0.45;;;;;;;18.01;32.58;102303.97;21074573;28;20040;-66
2023/03/09 05:18:08;;;;;;;0.60;0.60;;;;;;;18.00;32.22;102305.03;21068355;28;20048;-66
2023/03/09 05:28:12;;;;;;;1.02;0.77;;;;;;;17.99;32.38;102318.03;21083741;28;20485;-67
2023/03/09 05:38:13;;;;;;;0.57;0.50;;;;;;;17.96;32.20;102320.41;21089012;28;20051;-66
2023/03/09 05:48:15;;;;;;;0.60;0.50;;;;;;;17.96;32.30;102335.13;21088246;28;20475;-66
2023/03/09 05:58:16;;;;;;;0.57;0.57;;;;;;;17.96;32.39;102326.81;21087382;28;20040;-67
2023/03/09 06:08:20;;;;;;;0.52;0.52;;;;;;;17.95;32.56;102329.78;21086341;28;20560;-66
2023/03/09 06:18:22;;;;;;;0.50;0.50;;;;;;;17.95;32.09;102329.78;21084043;28;20432;-67
2023/03/09 06:28:24;;;;;;;0.52;0.50;;;;;;;17.92;32.13;102328.34;21084310;28;20101;-68
2023/03/09 06:38:27;;;;;;;0.63;0.50;;;;;;;17.92;32.35;102333.03;21082929;28;20114;-68
2023/03/09 06:48:29;;;;;;;0.75;0.60;;;;;;;17.92;32.14;102346.88;21083247;28;20094;-66
2023/03/09 06:58:32;;;;;;;0.50;0.50;;;;;;;17.87;32.52;102343.91;21082488;28;20114;-67
2023/03/09 07:08:34;;;;;;;0.70;0.50;;;;;;;17.89;32.23;102347.31;21080934;28;20112;-66
2023/03/09 07:18:35;;;;;;;0.60;0.60;;;;;;;17.87;32.41;102349.47;21080633;28;20036;-66
2023/03/09 07:28:37;;;;;;;0.70;0.70;;;;;;;17.86;32.36;102343.06;21078550;28;20043;-68
2023/03/09 07:38:38;;;;;;;0.82;0.55;;;;;;;17.85;32.43;102329.47;21079123;28;20055;-68
2023/03/09 07:48:41;;;;;;;0.57;0.57;;;;;;;17.83;32.24;102326.09;21078160;28;20036;-66
2023/03/09 07:58:44;;;;;;;0.50;0.50;;;;;;;17.73;32.35;102313.59;21066951;28;20044;-66
2023/03/09 08:08:46;;;;;;;0.80;0.60;;;;;;;17.77;32.04;102322.28;21077112;28;20113;-66
2023/03/09 08:18:48;;;;;;;0.50;0.50;;;;;;;17.81;32.25;102322.69;21076540;28;20047;-67
2023/03/09 08:28:49;;;;;;;1.30;0.60;;;;;;;17.75;32.46;102328.06;21076281;28;20040;-67
2023/03/09 08:38:51;;;;;;;1.80;0.70;;;;;;;17.74;31.99;102331.91;21075937;28;20093;-66
2023/03/09 08:48:52;;;;;;;0.77;0.60;;;;;;;17.73;32.41;102332.06;21075556;28;20086;-67
2023/03/09 08:58:54;;;;;;;1.00;0.77;;;;;;;17.67;31.90;102320.00;21079890;28;20047;-66
2023/03/09 09:08:58;;;;;;;0.80;0.80;;;;;;;17.69;31.94;102336.41;21091586;28;20536;-66
2023/03/09 09:18:59;;;;;;;0.88;0.60;;;;;;;17.53;32.06;102287.97;21090565;28;20105;-66
2023/03/09 09:29:01;;;;;;;0.50;0.50;;;;;;;17.64;32.22;102312.16;21089013;28;20113;-66
2023/03/09 09:39:03;;;;;;;0.65;0.65;;;;;;;17.65;32.20;102290.84;21089004;28;20445;-66
2023/03/09 09:49:04;;;;;;;0.75;0.75;;;;;;;17.63;32.21;102288.28;21088005;28;20098;-66
2023/03/09 09:59:12;;;;;;;0.70;0.70;;;;;;;17.61;32.33;102279.38;21087199;28;20036;-66
2023/03/09 10:09:24;;;;;;;0.77;0.68;;;;;;;17.48;32.16;102246.28;21086409;28;20070;-66
2023/03/09 10:19:33;;;;;;;0.65;0.65;;;;;;;17.54;31.96;102242.59;21085089;28;20434;-66
2023/03/09 10:29:52;;;;;;;;;;;;;;;17.58;32.07;102263.22;21085113;28;20044;-66
2023/03/09 10:39:54;;;;;;;0.70;0.70;;;;;;;17.57;31.81;102261.53;21084063;28;19938;-66
2023/03/09 10:50:12;;;;;;;0.80;0.70;;;;;;;17.47;32.07;102264.81;21082890;28;20040;-66
2023/03/09 11:00:14;;;;;;;0.70;0.63;;;;;;;17.56;31.87;102270.91;21081934;28;20142;-67
2023/03/09 11:10:28;;;;;;;0.95;0.60;;;;;;;17.36;31.82;102226.78;21080961;28;20043;-68
2023/03/09 11:20:38;;;;;;;0.70;0.70;;;;;;;17.63;31.51;102263.38;21079883;28;20036;-67
2023/03/09 11:30:40;;;;;;;0.98;0.70;;;;;;;17.65;31.40;102275.09;21079498;28;20549;-67
2023/03/09 11:40:43;;;;;;;0.75;0.60;;;;;;;17.73;31.65;102287.78;21079045;28;20032;-67
2023/03/09 11:50:59;;;;;;;1.20;0.73;;;;;;;17.75;31.78;102303.13;21077725;28;20074;-67
2023/03/09 12:01:20;;;;;;;0.85;0.85;;;;;;;17.80;31.54;102296.91;21077527;28;20044;-68
2023/03/09 12:11:43;;;;;;;0.85;0.60;;;;;;;17.86;31.83;102300.69;21077196;28;20364;-65
2023/03/09 12:21:59;;;;;;;1.05;0.70;;;;;;;17.92;31.31;102297.88;21076320;28;20036;-67
2023/03/09 12:32:21;;;;;;;0.70;0.68;;;;;;;17.94;31.47;102289.34;21078148;28;20113;-66
2023/03/09 12:42:37;;;;;;;1.23;0.80;;;;;;;18.00;31.79;102271.78;21093144;28;20040;-66
2023/03/09 12:53:06;;;;;;;0.75;0.50;;;;;;;18.04;31.55;102268.34;21085443;28;20383;-66
2023/03/09 13:03:17;;;;;;;0.85;0.73;;;;;;;18.07;31.63;102263.44;21091401;28;20044;-66
2023/03/09 13:13:37;;;;;;;0.80;0.73;;;;;;;18.10;31.46;102243.56;21091033;28;20036;-66
2023/03/09 13:23:38;;;;;;;0.85;0.75;;;;;;;18.17;31.67;102223.03;21089671;28;20077;-66
2023/03/09 13:33:42;;;;;;;1.08;0.70;;;;;;;18.18;31.33;102213.63;21089230;28;20365;-66
2023/03/09 13:43:48;;;;;;;0.68;0.60;;;;;;;18.21;31.26;102213.16;21087554;28;20491;-66
2023/03/09 13:53:52;;;;;;;1.00;0.90;;;;;;;18.26;31.38;102210.53;21087153;28;20101;-68
2023/03/09 14:03:57;;;;;;;1.10;0.90;;;;;;;18.27;31.59;102203.91;21086050;28;20039;-68
2023/03/09 14:14:05;;;;;;;0.85;0.65;;;;;;;18.26;31.22;102206.94;21086621;28;20047;-67
2023/03/09 14:24:23;;;;;;;1.38;0.75;;;;;;;18.26;31.53;102210.53;21084853;28;20044;-67
2023/03/09 14:34:27;;;;;;;0.82;0.70;;;;;;;18.26;31.43;102204.16;21084125;28;20364;-67
2023/03/09 14:44:34;;;;;;;0.73;0.57;;;;;;;18.26;31.57;102193.91;21083453;28;20134;-67
2023/03/09 14:54:37;;;;;;;0.82;0.70;;;;;;;18.29;31.09;102212.03;21073855;28;20047;-66
2023/03/09 15:04:40;;;;;;;5.43;1.20;;;;;;;18.27;31.11;102200.31;21078912;28;20040;-66
2023/03/09 15:14:47;;;;;;;1.30;1.00;;;;;;;18.25;31.14;102200.53;21080708;28;20487;-65
2023/03/09 15:24:49;;;;;;;1.45;1.10;;;;;;;18.25;31.16;102181.16;21079842;28;20051;-65
2023/03/09 15:34:50;;;;;;;1.48;0.80;;;;;;;18.33;31.44;102154.22;21060394;28;20049;-65
2023/03/09 15:44:51;;;;;;;19.80;2.05;;;;;;;18.36;32.11;102150.94;21028039;28;20415;-65
2023/03/09 15:54:53;;;;;;;7.03;1.10;;;;;;;18.43;32.39;102147.03;21054149;28;20098;-66
2023/03/09 16:04:54;;;;;;;12.95;1.50;;;;;;;18.52;32.50;102142.00;21047906;28;20031;-66
2023/03/09 16:14:55;;;;;;;9.07;1.50;;;;;;;18.59;32.39;102134.41;21075420;28;20078;-66
2023/03/09 16:24:57;;;;;;;5.22;1.65;;;;;;;18.58;32.57;102105.00;21076016;28;20044;-66
2023/03/09 16:34:58;;;;;;;3.55;0.90;;;;;;;18.72;33.02;102103.72;21072388;28;20071;-66
2023/03/09 16:44:59;;;;;;;2.22;0.60;;;;;;;18.77;32.89;102087.22;21074053;28;20372;-66
2023/03/09 16:55:04;;;;;;;1.85;0.57;;;;;;;18.87;33.08;102077.47;21074755;28;20052;-65
2023/03/09 17:05:11;;;;;;;2.58;0.75;;;;;;;18.93;32.93;102076.53;21070325;28;20044;-66
2023/03/09 17:15:18;;;;;;;3.13;0.88;;;;;;;19.03;33.28;102074.00;21067998;28;20066;-66
2023/03/09 17:25:27;;;;;;;1.17;0.80;;;;;;;19.09;32.79;102052.75;21079589;28;20035;-66
2023/03/09 17:35:29;;;;;;;1.35;0.70;;;;;;;19.15;32.99;102055.44;21073893;28;20120;-66
2023/03/09 17:45:30;;;;;;;1.55;0.70;;;;;;;19.20;33.14;102038.91;21085738;28;20048;-67
2023/03/09 17:55:32;;;;;;;0.88;0.57;;;;;;;19.25;33.04;102030.69;21077290;28;20044;-66
2023/03/09 18:05:36;;;;;;;0.75;0.60;;;;;;;19.30;32.99;102028.00;21085271;28;20101;-66
2023/03/09 18:15:39;;;;;;;1.85;0.80;;;;;;;19.35;32.75;102029.22;21052596;28;20048;-65
2023/03/09 18:25:40;;;;;;;1.33;0.82;;;;;;;19.37;32.76;102021.47;21084635;28;20032;-65
2023/03/09 18:35:43;;;;;;;1.05;0.80;;;;;;;19.41;32.89;101986.59;21076690;28;20380;-64
2023/03/09 18:45:44;;;;;;;2.40;0.70;;;;;;;19.43;33.17;101976.09;21079282;28;20048;-64
2023/03/09 18:55:53;;;;;;;0.70;0.60;;;;;;;19.44;33.00;101972.22;21033191;28;20049;-65
2023/03/09 19:06:06;;;;;;;1.42;0.70;;;;;;;19.46;33.44;101987.53;21038016;28;20048;-64
2023/03/09 19:16:08;;;;;;;1.00;0.60;;;;;;;19.49;33.12;101969.56;21080443;28;20032;-65
2023/03/09 19:26:11;;;;;;;1.58;1.48;;;;;;;19.51;33.09;101957.09;21079924;28;20040;-64
2023/03/09 19:36:17;;;;;;;4.95;2.90;;;;;;;19.51;33.24;101950.72;21069079;28;20113;-67
2023/03/09 19:46:21;;;;;;;3.55;3.25;;;;;;;19.56;34.13;101950.81;21036005;28;20101;-67
2023/03/09 19:56:25;;;;;;;2.63;2.42;;;;;;;19.61;34.10;101953.75;21069667;28;20399;-65
2023/03/09 20:06:27;;;;;;;3.25;2.55;;;;;;;19.63;33.94;101943.22;21064293;28;20383;-66
2023/03/09 20:16:30;;;;;;;2.45;2.22;;;;;;;19.52;33.83;101902.44;21070986;28;20093;-66
2023/03/09 20:26:42;;;;;;;8.60;2.63;;;;;;;19.66;34.42;101920.53;21071966;28;20487;-66
2023/03/09 20:36:44;;;;;;;4.65;2.13;;;;;;;19.63;34.18;101921.00;21066253;28;20048;-66
2023/03/09 20:46:45;;;;;;;2.88;2.30;;;;;;;19.74;34.45;101931.19;21009977;28;20036;-65
2023/03/09 20:56:48;;;;;;;6.18;2.03;;;;;;;19.74;34.38;101925.66;21055478;28;20041;-66
2023/03/09 21:06:52;;;;;;;1.73;1.60;;;;;;;19.80;34.26;101927.44;21082341;28;20048;-67
2023/03/09 21:16:53;;;;;;;2.42;1.70;;;;;;;19.93;34.79;101925.44;21026298;28;20468;-67
2023/03/09 21:26:58;;;;;;;4.20;1.50;;;;;;;20.06;34.64;101930.66;21058696;28;20491;-66
2023/03/09 21:37:00;;;;;;;1.88;1.40;;;;;;;20.18;34.47;101928.66;21084309;28;20036;-67
2023/03/09 21:47:02;;;;;;;3.42;1.63;;;;;;;20.31;34.36;101928.31;21060634;28;20039;-65
2023/03/09 21:57:04;;;;;;;1.58;1.27;;;;;;;20.51;34.51;101947.28;21077559;28;20421;-65
2023/03/09 22:07:05;;;;;;;1.50;1.20;;;;;;;20.54;34.16;101921.78;21079343;28;20031;-66
2023/03/09 22:17:06;;;;;;;2.25;1.25;;;;;;;20.78;34.33;101955.78;21081830;28;20437;-65
2023/03/09 22:27:08;;;;;;;1.20;1.10;;;;;;;20.89;34.21;101979.03;21071313;28;20089;-66
2023/03/09 22:37:12;;;;;;;2.70;1.45;;;;;;;20.96;33.81;101973.28;21079888;28;20551;-66
2023/03/09 22:47:16;;;;;;;2.90;1.35;;;;;;;20.98;33.89;101999.78;21046029;28;20097;-68
2023/03/09 22:57:22;;;;;;;1.48;1.08;;;;;;;20.98;33.76;101993.34;21064704;28;20044;-67
2023/03/09 23:07:24;;;;;;;1.13;0.90;;;;;;;21.01;33.80;101995.63;21011569;28;20188;-68
2023/03/09 23:17:25;;;;;;;4.63;1.00;;;;;;;21.00;33.89;101980.03;21051097;28;20048;-68
2023/03/09 23:27:27;;;;;;;1.10;1.00;;;;;;;21.04;34.18;101995.13;21059273;28;20036;-68
2023/03/09 23:37:29;;;;;;;1.35;1.08;;;;;;;21.07;33.82;101997.38;21060410;28;20048;-67
2023/03/09 23:47:30;;;;;;;1.63;1.08;;;;;;;20.94;34.27;101986.63;21073346;28;20040;-67
2023/03/09 23:57:32;;;;;;;20.08;2.00;;;;;;;20.96;34.07;102012.25;21073690;28;20120;-66
